METAR Data
IDs: Format: Raw Decoded Include TAF

Data at: 2058 UTC 18 Sep 2018

KLXY 182055Z AUTO 23006G14KT 10SM SCT050 SCT065 SCT075 34/21 A2992 RMK AO2 T03410210
KLXY 182035Z AUTO 19004KT 10SM SCT050 SCT110 33/21 A2992 RMK AO2 T03280209
KLXY 182015Z AUTO 17007G18KT 10SM SCT050 SCT065 33/21 A2993 RMK AO2 T03300207
KLXY 181955Z AUTO 16003KT 10SM SCT050 BKN065 33/21 A2994 RMK AO2 T03340210
KLXY 181935Z AUTO 14003G08KT 10SM BKN050 33/21 A2994 RMK AO2 T03330211
KLXY 181915Z AUTO 24009KT 10SM SCT050 SCT070 34/22 A2995 RMK AO2 T03350215
KLXY 181835Z AUTO 21008KT 160V250 10SM CLR 33/21 A2997 RMK AO2 T03300214
KLXY 181815Z AUTO 20011G18KT 180V280 10SM CLR 33/22 A2998 RMK AO2 T03270216
KLXY 181755Z AUTO 18008KT 140V230 10SM CLR 32/22 A2999 RMK AO2 T03220216 10325 20223
KLXY 181735Z AUTO 18003KT 10SM CLR 32/22 A3000 RMK AO2 T03210217
KLXY 181715Z AUTO 23003G15KT 10SM CLR 32/22 A3001 RMK AO2 T03190216
KLXY 181655Z AUTO 19003KT 10SM CLR 31/21 A3002 RMK AO2 T03140211
KLXY 181635Z AUTO 00000KT 10SM CLR 31/22 A3002 RMK AO2 T03110219
KLXY 181615Z AUTO 22006KT 10SM CLR 30/22 A3002 RMK AO2 T03040221
KLXY 181555Z AUTO 27009KT 10SM CLR 30/22 A3003 RMK AO2 T03000220
KLXY 181535Z AUTO 21006KT 10SM CLR 30/22 A3003 RMK AO2 T02960216
KLXY 181515Z AUTO 25005KT 10SM CLR 29/22 A3002 RMK AO2 T02910222
KLXY 181455Z AUTO 25005KT 10SM CLR 28/22 A3002 RMK AO2 T02830220
KLXY 181435Z AUTO 23004KT 10SM CLR 27/22 A3002 RMK AO2 T02740221
KLXY 181415Z AUTO 22004KT 10SM CLR 27/22 A3002 RMK AO2 T02650222
KLXY 181355Z AUTO 19004KT 10SM CLR 26/22 A3002 RMK AO2 T02550223
KLXY 181335Z AUTO 00000KT 10SM CLR 25/22 A3002 RMK AO2 T02460217
KLXY 181315Z AUTO 00000KT 10SM CLR 24/22 A3002 RMK AO2 T02370215
KLXY 181255Z AUTO 00000KT 10SM CLR 23/21 A3001 RMK AO2 T02300208
KLXY 181235Z AUTO 00000KT 10SM CLR 23/21 A3000 RMK AO2 T02250205
KLXY 181215Z AUTO 23003KT 10SM CLR 23/20 A2999 RMK AO2 T02250202
KLXY 181155Z AUTO 25003KT 10SM CLR 23/21 A2999 RMK AO2 T02300205 10255 20230
KLXY 181135Z AUTO 13003KT 10SM CLR 23/21 A2998 RMK AO2 T02300205
KLXY 181115Z AUTO 00000KT 10SM CLR 23/21 A2998 RMK AO2 T02310208
KLXY 181055Z AUTO 23004KT 10SM CLR 24/21 A2998 RMK AO2 T02350207
KLXY 181035Z AUTO 23004KT 10SM CLR 23/21 A2997 RMK AO2 T02310206
KLXY 181015Z AUTO 11006KT 10SM CLR 23/21 A2997 RMK AO2 T02340209
KLXY 180955Z AUTO 15004KT 10SM CLR 24/21 A2997 RMK AO2 T02350210
KLXY 180935Z AUTO 12004KT 10SM CLR 24/21 A2997 RMK AO2 T02370210
KLXY 180915Z AUTO 11005KT 10SM CLR 24/21 A2997 RMK AO2 T02440208
KLXY 180855Z AUTO 11005KT 10SM CLR 24/21 A2997 RMK AO2 T02390210
KLXY 180835Z AUTO 12004KT 10SM CLR 24/21 A2997 RMK AO2 T02380210
KLXY 180815Z AUTO 20003KT 10SM CLR 24/21 A2998 RMK AO2 LTG DSNT SW T02420211
KLXY 180755Z AUTO 00000KT 10SM CLR 25/21 A2998 RMK AO2 T02450211
KLXY 180735Z AUTO 00000KT 10SM CLR 25/21 A2998 RMK AO2 T02470210
KLXY 180715Z AUTO 20009KT 10SM CLR 25/21 A2998 RMK AO2 T02500210
KLXY 180655Z AUTO 20003KT 10SM CLR 25/21 A2998 RMK AO2 T02460210
KLXY 180635Z AUTO 20009KT 10SM CLR 26/21 A2998 RMK AO2 T02550210
KLXY 180615Z AUTO 20009KT 10SM CLR 26/21 A2998 RMK AO2 T02550210
KLXY 180555Z AUTO 20009KT 10SM CLR 25/21 A2998 RMK AO2 T02540210 10317 20251 403310228
KLXY 180535Z AUTO 20008KT 10SM CLR 26/21 A2998 RMK AO2 T02570210
KLXY 180515Z AUTO 20009KT 10SM CLR 26/21 A2998 RMK AO2 T02560210
KLXY 180455Z AUTO 20010KT 10SM CLR 26/21 A2998 RMK AO2 T02620209
KLXY 180435Z AUTO 20009KT 10SM CLR 27/21 A2998 RMK AO2 LTG DSNT SW T02650207
KLXY 180415Z AUTO 20009KT 10SM CLR 27/21 A2998 RMK AO2 T02650207
KLXY 180355Z AUTO 20010KT 10SM CLR 27/21 A2998 RMK AO2 T02650206
KLXY 180335Z AUTO 20009KT 10SM CLR 27/21 A2997 RMK AO2 T02670207
KLXY 180315Z AUTO 00000KT 10SM CLR 27/21 A2997 RMK AO2 T02680205
KLXY 180255Z AUTO 00000KT 10SM CLR 27/20 A2996 RMK AO2 T02660203
KLXY 180235Z AUTO 00000KT 10SM CLR 27/20 A2996 RMK AO2 T02740201
KLXY 180215Z AUTO 00000KT 10SM CLR 28/20 A2995 RMK AO2 T02810198
KLXY 180155Z AUTO 00000KT 10SM CLR 28/20 A2994 RMK AO2 T02800201
KLXY 180135Z AUTO 00000KT 10SM CLR 29/20 A2993 RMK AO2 T02870199
KLXY 180115Z AUTO 18003KT 10SM CLR 28/21 A2992 RMK AO2 T02780210
KLXY 180055Z AUTO 20007KT 10SM CLR 29/21 A2992 RMK AO2 T02890210
KLXY 180035Z AUTO 00000KT 10SM CLR 30/21 A2992 RMK AO2 T02970214
KLXY 180015Z AUTO 00000KT 10SM CLR 31/21 A2992 RMK AO2 T03110214
KLXY 172355Z AUTO 00000KT 10SM CLR 32/20 A2992 RMK AO2 T03180204 10331 20306
KLXY 172335Z AUTO 00000KT 10SM CLR 32/20 A2992 RMK AO2 T03230197
KLXY 172315Z AUTO 24005KT 10SM CLR 33/20 A2992 RMK AO2 T03250198
KLXY 172255Z AUTO 22007KT 10SM CLR 33/20 A2992 RMK AO2 T03300199
KLXY 172235Z AUTO 14005KT 10SM CLR 33/20 A2992 RMK AO2 T03270202
KLXY 172215Z AUTO 25005KT 10SM CLR 33/21 A2992 RMK AO2 T03300205
KLXY 172155Z AUTO 22005KT 10SM CLR 33/20 A2993 RMK AO2 T03300202
KLXY 172135Z AUTO 00000KT 10SM CLR 32/21 A2993 RMK AO2 T03220209
KLXY 172115Z AUTO 20003KT 10SM CLR 32/21 A2994 RMK AO2 T03200208
KLXY 172055Z AUTO 16005KT 10SM CLR 33/20 A2994 RMK AO2 T03250202
KLXY 172035Z AUTO 18004KT 10SM CLR 33/21 A2995 RMK AO2 T03260208
KLXY 172015Z AUTO 20005G17KT 10SM CLR 33/21 A2995 RMK AO2 T03260206
KLXY 171955Z AUTO 25003KT 10SM CLR 32/21 A2996 RMK AO2 T03210212
KLXY 171935Z AUTO 21004KT 10SM BKN050 32/20 A2997 RMK AO2 T03210202
KLXY 171915Z AUTO 20009G16KT 160V240 10SM SCT050 33/22 A2998 RMK AO2 T03280215
KLXY 171855Z AUTO 27006KT 10SM SCT041 BKN049 32/22 A2998 RMK AO2 T03170218
KLXY 171835Z AUTO 00000KT 10SM SCT041 SCT047 31/21 A2999 RMK AO2 T03060207
KLXY 171815Z AUTO 00000KT 10SM CLR 31/21 A2999 RMK AO2 T03110210
KLXY 171755Z AUTO 22005KT 10SM CLR 31/21 A3000 RMK AO2 T03120210 10312 20228
KLXY 171735Z AUTO 22004KT 10SM CLR 31/21 A3001 RMK AO2 T03080205
KLXY 171715Z AUTO 24006KT 10SM CLR 31/21 A3002 RMK AO2 T03050205
KLXY 171655Z AUTO 25007KT 10SM CLR 30/22 A3002 RMK AO2 T03030215
KLXY 171635Z AUTO 25006KT 10SM CLR 30/21 A3002 RMK AO2 T02980209
KLXY 171615Z AUTO 26007KT 10SM CLR 29/21 A3003 RMK AO2 T02940214
KLXY 171555Z AUTO 26006KT 10SM CLR 29/22 A3003 RMK AO2 T02920215
KLXY 171535Z AUTO 25008KT 10SM CLR 29/21 A3003 RMK AO2 T02890210
KLXY 171515Z AUTO 25005KT 10SM CLR 28/21 A3002 RMK AO2 T02830212
KLXY 171455Z AUTO 27005KT 10SM CLR 28/21 A3002 RMK AO2 T02790213
KLXY 171435Z AUTO 27004KT 10SM CLR 27/23 A3001 RMK AO2 T02660225
KLXY 171415Z AUTO 28004KT 10SM CLR 26/23 A3000 RMK AO2 T02580225
KLXY 171355Z AUTO 27003KT 10SM CLR 26/22 A3000 RMK AO2 T02560222
KLXY 171335Z AUTO 27004KT 10SM CLR 26/22 A2999 RMK AO2 T02570222
KLXY 171315Z AUTO 25004KT 10SM CLR 25/23 A2999 RMK AO2 T02470226
KLXY 171255Z AUTO 25003KT 10SM CLR 24/22 A2998 RMK AO2 T02370223
KLXY 171235Z AUTO 25004KT 10SM CLR 23/22 A2997 RMK AO2 T02340222
KLXY 171215Z AUTO 04004KT 10SM CLR 23/22 A2996 RMK AO2 T02280223
KLXY 171155Z AUTO 24004KT 10SM CLR 23/22 A2996 RMK AO2 T02310220 10248 20231
KLXY 171135Z AUTO 27004KT 10SM CLR 24/22 A2995 RMK AO2 T02360217
KLXY 171115Z AUTO 26005KT 10SM CLR 24/22 A2995 RMK AO2 T02380218
KLXY 171055Z AUTO 27006KT 10SM CLR 24/22 A2995 RMK AO2 T02400217
KLXY 171035Z AUTO 28004KT 10SM CLR 24/22 A2994 RMK AO2 T02380216
KLXY 171015Z AUTO 27004KT 10SM CLR 24/22 A2994 RMK AO2 T02360216
KLXY 170955Z AUTO 25005KT 10SM CLR 24/22 A2994 RMK AO2 T02350215
KLXY 170935Z AUTO 26004KT 10SM CLR 24/22 A2994 RMK AO2 T02360216
KLXY 170915Z AUTO 26005KT 10SM CLR 24/22 A2994 RMK AO2 T02360215